createdAt,value
2022-11-19T00:01:28.690Z,100036.97
2022-11-19T00:03:56.129Z,99991.03
2022-11-19T00:06:27.640Z,100012.69
2022-11-19T00:08:55.067Z,100051.69
2022-11-19T00:11:47.028Z,100039.13
2022-11-19T00:14:16.095Z,100048.09
2022-11-19T00:16:45.504Z,100032.97
2022-11-19T00:19:12.963Z,100015.28
2022-11-19T00:21:39.819Z,100031.44
2022-11-19T00:24:07.293Z,100037.94
2022-11-19T00:26:34.179Z,100033.63
2022-11-19T00:29:01.126Z,100033.94
2022-11-19T00:31:28.455Z,99921.41
2022-11-19T00:33:55.368Z,100049.91
2022-11-19T00:36:23.352Z,100060.47
2022-11-19T00:38:50.482Z,100059.50
2022-11-19T00:41:17.719Z,100065.13
2022-11-19T00:43:47.598Z,100029.75
2022-11-19T00:46:30.989Z,100069.94
2022-11-19T00:48:59.635Z,100034.59
2022-11-19T00:51:29.161Z,100034.38
2022-11-19T00:53:56.936Z,100070.34
2022-11-19T00:56:25.401Z,100083.91
2022-11-19T00:58:52.617Z,100069.47
2022-11-19T01:01:21.288Z,100075.31
2022-11-19T01:03:48.890Z,100065.47
2022-11-19T01:06:19.529Z,100063.47
2022-11-19T01:08:48.320Z,100074.06
2022-11-19T01:11:18.120Z,100094.81
2022-11-19T01:13:45.067Z,100106.00
2022-11-19T01:16:36.821Z,100112.41
2022-11-19T01:19:05.472Z,100113.13
2022-11-19T01:21:34.319Z,100110.38
2022-11-19T01:24:03.357Z,100091.47
2022-11-19T01:26:30.699Z,100091.47
2022-11-19T01:28:58.063Z,100117.00
2022-11-19T01:31:27.779Z,100119.06
2022-11-19T01:33:55.009Z,100099.59
2022-11-19T01:36:24.631Z,100094.34
2022-11-19T01:38:51.951Z,100126.19
2022-11-19T01:41:20.469Z,100105.63
2022-11-19T01:43:49.113Z,100123.44
2022-11-19T01:46:24.339Z,100125.72
2022-11-19T01:48:56.822Z,100103.41
2022-11-19T01:51:29.704Z,100105.25
2022-11-19T01:54:01.941Z,100138.53
2022-11-19T01:56:30.625Z,100129.09
2022-11-19T01:59:07.427Z,100126.19
2022-11-19T02:01:34.602Z,100153.41
2022-11-19T02:04:03.669Z,100135.16
2022-11-19T02:06:32.350Z,100159.56
2022-11-19T02:08:59.328Z,100166.56
2022-11-19T02:11:26.151Z,100159.53
2022-11-19T02:14:31.900Z,100163.00
2022-11-19T02:17:36.114Z,100166.22
2022-11-19T02:20:24.598Z,100173.16
2022-11-19T02:23:16.152Z,100178.50
2022-11-19T02:26:08.171Z,100178.13
2022-11-19T02:28:46.372Z,100177.06
2022-11-19T02:31:39.467Z,100177.75
2022-11-19T02:34:39.312Z,100176.44
2022-11-19T02:37:15.466Z,100175.69
2022-11-19T02:39:56.872Z,100170.59
2022-11-19T02:42:48.049Z,100186.41
2022-11-19T02:45:45.523Z,100170.81
2022-11-19T02:48:18.048Z,100111.53
2022-11-19T02:50:58.180Z,100170.00
2022-11-19T02:53:25.071Z,100151.59
2022-11-19T02:56:10.449Z,100173.16
2022-11-19T02:59:03.530Z,100044.66
2022-11-19T03:01:52.649Z,100163.91
2022-11-19T03:04:31.238Z,100166.25
2022-11-19T03:07:17.619Z,100171.78
2022-11-19T03:10:00.135Z,100170.75
2022-11-19T03:12:36.310Z,100199.75
2022-11-19T03:15:44.332Z,100182.75
2022-11-19T03:18:36.284Z,100186.88
2022-11-19T03:21:15.169Z,100184.91
2022-11-19T03:23:54.772Z,100173.50
2022-11-19T03:26:30.232Z,100171.03
2022-11-19T03:29:01.896Z,100196.59
2022-11-19T03:31:31.704Z,100195.34
2022-11-19T03:34:04.104Z,100210.00
2022-11-19T03:36:36.990Z,100178.19
2022-11-19T03:39:08.158Z,100178.19
2022-11-19T03:41:37.902Z,100185.13
2022-11-19T03:44:22.069Z,100168.63
2022-11-19T03:46:55.958Z,100206.28
2022-11-19T03:49:31.747Z,100207.94
2022-11-19T03:52:12.605Z,100203.00
2022-11-19T03:54:40.663Z,100216.03
2022-11-19T03:57:10.339Z,100214.38
2022-11-19T03:59:37.560Z,100183.44
2022-11-19T04:02:07.986Z,100180.41
2022-11-19T04:04:38.233Z,100218.34
2022-11-19T04:07:11.545Z,100211.03
2022-11-19T04:09:39.980Z,100221.66
2022-11-19T04:12:08.919Z,100225.59
2022-11-19T04:14:35.798Z,100224.19
2022-11-19T04:17:02.748Z,100233.31
2022-11-19T04:19:29.639Z,100223.84
2022-11-19T04:21:56.567Z,100211.34
2022-11-19T04:24:23.476Z,100237.59
2022-11-19T04:26:50.425Z,100249.19
2022-11-19T04:29:17.682Z,100250.34
2022-11-19T04:31:44.950Z,100249.91
2022-11-19T04:34:11.896Z,100238.06
2022-11-19T04:36:42.354Z,100213.78
2022-11-19T04:39:10.201Z,100254.53
2022-11-19T04:41:37.163Z,100268.13
2022-11-19T04:44:04.337Z,100278.25
2022-11-19T04:46:31.595Z,100270.22
2022-11-19T04:48:58.818Z,100241.28
2022-11-19T04:51:25.785Z,100153.31
2022-11-19T04:53:52.759Z,100255.28
2022-11-19T04:56:19.642Z,100274.41
2022-11-19T04:58:46.600Z,100274.06
2022-11-19T05:01:13.541Z,100277.38
2022-11-19T05:03:40.449Z,100283.66
2022-11-19T05:06:07.810Z,100278.06
2022-11-19T05:08:34.705Z,100277.31
2022-11-19T05:11:01.616Z,100274.56
2022-11-19T05:13:28.568Z,100286.75
2022-11-19T05:15:55.420Z,100280.22
2022-11-19T05:18:22.949Z,100267.31
2022-11-19T05:20:49.849Z,100238.75
2022-11-19T05:23:16.692Z,100243.19
2022-11-19T05:25:43.608Z,100261.19
2022-11-19T05:28:10.544Z,100262.06
2022-11-19T05:30:37.412Z,100266.25
2022-11-19T05:33:04.872Z,100275.34
2022-11-19T05:35:31.793Z,100263.19
2022-11-19T05:37:58.677Z,100257.88
2022-11-19T05:40:25.625Z,100266.03
2022-11-19T05:42:52.530Z,100255.13
2022-11-19T05:45:19.456Z,100286.38
2022-11-19T05:47:48.840Z,100289.41
2022-11-19T05:50:16.550Z,100269.50
2022-11-19T05:52:43.479Z,100283.53
2022-11-19T05:55:10.331Z,100238.75
2022-11-19T05:57:37.228Z,100297.19
2022-11-19T06:00:05.661Z,100272.09
2022-11-19T06:02:39.888Z,100248.84
2022-11-19T06:05:07.420Z,100290.56
2022-11-19T06:07:34.321Z,100302.06
2022-11-19T06:10:01.315Z,100300.88
2022-11-19T06:12:30.955Z,100253.44
2022-11-19T06:14:57.963Z,100300.34
2022-11-19T06:17:24.813Z,100270.59
2022-11-19T06:19:51.797Z,100309.06
2022-11-19T06:22:18.657Z,100234.53
2022-11-19T06:24:45.507Z,100281.44
2022-11-19T06:27:12.358Z,100288.75
2022-11-19T06:29:39.250Z,100266.44
2022-11-19T06:32:06.144Z,100298.53
2022-11-19T06:34:33.054Z,100212.69
2022-11-19T06:37:00.207Z,100274.31
2022-11-19T06:39:27.121Z,100291.91
2022-11-19T06:41:54.095Z,100300.00
2022-11-19T06:44:20.953Z,100295.81
2022-11-19T06:46:47.821Z,100284.09
2022-11-19T06:49:19.853Z,100295.94
2022-11-19T06:51:47.121Z,100309.75
2022-11-19T06:54:14.129Z,100316.72
2022-11-19T06:56:41.106Z,100307.53
2022-11-19T06:59:08.041Z,100316.41
2022-11-19T07:01:35.044Z,100263.59
2022-11-19T07:04:02.035Z,100327.13
2022-11-19T07:06:28.914Z,100338.38
2022-11-19T07:08:55.793Z,100337.63
2022-11-19T07:11:28.688Z,100338.84
2022-11-19T07:13:57.708Z,100340.38
2022-11-19T07:16:26.207Z,100348.47
2022-11-19T07:18:53.319Z,100359.34
2022-11-19T07:21:20.250Z,100369.50
2022-11-19T07:23:47.137Z,100356.66
2022-11-19T07:26:15.374Z,100320.69
2022-11-19T07:28:42.297Z,100380.34
2022-11-19T07:31:09.566Z,100388.63
2022-11-19T07:33:39.160Z,100381.00
2022-11-19T07:36:14.045Z,100388.22
2022-11-19T07:38:43.864Z,100342.50
2022-11-19T07:41:29.366Z,100376.91
2022-11-19T07:43:56.260Z,100393.41
2022-11-19T07:46:23.371Z,100408.13
2022-11-19T07:48:54.529Z,100405.38
2022-11-19T07:51:22.042Z,100395.72
2022-11-19T07:53:49.729Z,100418.19
2022-11-19T07:56:17.552Z,100412.88
2022-11-19T07:58:45.078Z,100411.44
2022-11-19T08:01:14.871Z,100388.53
2022-11-19T08:03:42.867Z,100399.50
2022-11-19T08:06:10.154Z,100397.16
2022-11-19T08:08:37.752Z,100406.59
2022-11-19T08:11:06.455Z,100415.97
2022-11-19T08:13:34.093Z,100412.88
2022-11-19T08:16:05.454Z,100393.63
2022-11-19T08:18:32.493Z,100409.97
2022-11-19T08:21:08.016Z,100414.28
2022-11-19T08:23:37.162Z,100412.31
2022-11-19T08:26:06.778Z,100409.19
2022-11-19T08:28:33.701Z,100403.97
2022-11-19T08:31:08.350Z,100369.66
2022-11-19T08:33:35.919Z,100396.56
2022-11-19T08:36:03.542Z,100386.69
2022-11-19T08:38:34.535Z,100371.84
2022-11-19T08:41:23.164Z,100388.47
2022-11-19T08:43:50.018Z,100384.94
2022-11-19T08:46:18.122Z,100378.88
2022-11-19T08:48:45.089Z,100381.06
2022-11-19T08:51:14.827Z,100378.97
2022-11-19T08:53:43.144Z,100369.28
2022-11-19T08:56:13.965Z,100366.13
2022-11-19T08:58:45.222Z,100382.72
2022-11-19T09:01:14.170Z,100313.94
2022-11-19T09:03:41.999Z,100378.84
2022-11-19T09:06:09.751Z,100382.81
2022-11-19T09:08:36.882Z,100393.78
2022-11-19T09:11:12.604Z,100378.06
2022-11-19T09:13:39.873Z,100352.19
2022-11-19T09:16:07.815Z,100375.44
2022-11-19T09:18:39.040Z,100386.16
2022-11-19T09:21:07.891Z,100378.53
2022-11-19T09:23:35.056Z,100398.56
2022-11-19T09:26:11.987Z,100389.78
2022-11-19T09:28:38.858Z,100353.72
2022-11-19T09:31:10.373Z,100400.13
2022-11-19T09:33:39.501Z,100400.22
2022-11-19T09:36:06.707Z,100386.53
2022-11-19T09:38:35.251Z,100380.56
2022-11-19T09:41:25.273Z,100416.31
2022-11-19T09:44:21.464Z,100420.84
2022-11-19T09:47:17.295Z,100423.03
2022-11-19T09:49:50.095Z,100420.84
2022-11-19T09:52:23.170Z,100422.63
2022-11-19T09:54:54.168Z,100407.34
2022-11-19T09:57:29.641Z,100428.06
2022-11-19T09:59:59.072Z,100316.94
2022-11-19T10:02:26.372Z,100420.50
2022-11-19T10:04:53.951Z,100406.16
2022-11-19T10:07:20.901Z,100424.19
2022-11-19T10:10:12.668Z,100383.22
2022-11-19T10:12:42.629Z,100391.84
2022-11-19T10:15:22.924Z,100427.50
2022-11-19T10:18:35.046Z,100423.28
2022-11-19T10:21:24.618Z,100414.53
2022-11-19T10:24:10.230Z,100418.66
2022-11-19T10:26:40.959Z,100396.03
2022-11-19T10:29:22.167Z,100384.63
2022-11-19T10:31:51.425Z,100404.25
2022-11-19T10:34:38.776Z,100406.25
2022-11-19T10:37:14.305Z,100401.38
2022-11-19T10:40:07.433Z,100404.91
2022-11-19T10:42:41.313Z,100393.50
2022-11-19T10:45:19.148Z,100370.19
2022-11-19T10:47:48.095Z,100386.44
2022-11-19T10:50:19.844Z,100379.34
2022-11-19T10:52:55.255Z,100370.41
2022-11-19T10:55:39.991Z,100375.38
2022-11-19T10:58:23.455Z,100377.91
2022-11-19T11:00:53.610Z,100365.72
2022-11-19T11:03:34.304Z,100362.06
2022-11-19T11:06:05.314Z,100320.03
2022-11-19T11:08:48.835Z,100349.53
2022-11-19T11:11:24.824Z,100351.53
2022-11-19T11:14:10.786Z,100319.78
2022-11-19T11:16:45.054Z,100325.66
2022-11-19T11:19:18.551Z,100332.06
2022-11-19T11:21:45.953Z,100334.06
2022-11-19T11:24:14.635Z,100335.06
2022-11-19T11:26:41.657Z,100261.72
2022-11-19T11:29:14.696Z,100326.44
2022-11-19T11:31:44.059Z,100336.47
2022-11-19T11:34:25.936Z,100351.31
2022-11-19T11:36:54.599Z,100348.91
2022-11-19T11:39:28.111Z,100340.91
2022-11-19T11:42:17.429Z,100337.81
2022-11-19T11:45:01.605Z,100310.84
2022-11-19T11:47:36.552Z,100305.00
2022-11-19T11:50:23.743Z,100338.72
2022-11-19T11:52:53.530Z,100318.06
2022-11-19T11:55:23.252Z,100329.44
2022-11-19T11:58:02.147Z,100287.63
2022-11-19T12:00:29.050Z,100315.81
2022-11-19T12:03:11.111Z,100299.66
2022-11-19T12:06:02.015Z,100322.13
2022-11-19T12:08:35.765Z,100311.94
2022-11-19T12:11:20.625Z,100308.59
2022-11-19T12:13:56.762Z,100317.78
2022-11-19T12:16:46.141Z,100306.16
2022-11-19T12:19:38.343Z,100324.31
2022-11-19T12:22:09.879Z,100323.28
2022-11-19T12:24:42.765Z,100321.63
2022-11-19T12:27:18.686Z,100312.75
2022-11-19T12:30:00.257Z,100314.50
2022-11-19T12:32:49.020Z,100320.94
2022-11-19T12:35:44.648Z,100315.63
2022-11-19T12:38:32.187Z,100316.59
2022-11-19T12:41:02.005Z,100323.66
2022-11-19T12:43:50.177Z,100328.53
2022-11-19T12:46:35.374Z,100321.44
2022-11-19T12:49:44.178Z,100307.28
2022-11-19T12:52:40.404Z,100323.28
2022-11-19T12:55:33.293Z,100223.50
2022-11-19T12:58:06.222Z,100334.97
2022-11-19T13:00:41.264Z,100327.00
2022-11-19T13:03:12.464Z,100305.91
2022-11-19T13:06:07.679Z,100307.66
2022-11-19T13:08:41.758Z,100315.28
2022-11-19T13:11:16.525Z,100312.06
2022-11-19T13:13:57.391Z,100300.44
2022-11-19T13:16:27.181Z,100302.34
2022-11-19T13:19:05.442Z,100302.44
2022-11-19T13:21:46.337Z,100303.00
2022-11-19T13:24:38.227Z,100295.91
2022-11-19T13:27:11.307Z,100299.75
2022-11-19T13:29:49.766Z,100303.19
2022-11-19T13:32:31.719Z,100308.84
2022-11-19T13:35:04.477Z,100296.13
2022-11-19T13:38:19.964Z,100289.56
2022-11-19T13:40:49.579Z,100281.38
2022-11-19T13:43:38.602Z,100273.66
2022-11-19T13:46:11.230Z,100276.63
2022-11-19T13:48:51.104Z,100278.69
2022-11-19T13:51:40.491Z,100276.03
2022-11-19T13:54:09.103Z,100284.41
2022-11-19T13:56:46.440Z,100277.69
2022-11-19T13:59:31.998Z,100273.66
2022-11-19T14:02:17.540Z,100269.72
2022-11-19T14:05:10.099Z,100278.97
2022-11-19T14:08:08.930Z,100272.53
2022-11-19T14:10:51.139Z,100266.72
2022-11-19T14:13:26.731Z,100268.81
2022-11-19T14:16:31.794Z,100254.25
2022-11-19T14:19:29.416Z,100266.38
2022-11-19T14:22:15.083Z,100249.88
2022-11-19T14:25:06.725Z,100254.00
2022-11-19T14:27:34.991Z,100241.97
2022-11-19T14:30:09.387Z,100225.63
2022-11-19T14:32:47.426Z,100215.00
2022-11-19T14:35:25.559Z,100250.38
2022-11-19T14:37:56.184Z,100209.31
2022-11-19T14:40:28.454Z,100131.75
2022-11-19T14:43:19.764Z,100240.72
2022-11-19T14:46:02.968Z,100217.97
2022-11-19T14:48:40.592Z,100237.34
2022-11-19T14:51:13.207Z,100225.16
2022-11-19T14:54:28.572Z,100240.97
2022-11-19T14:57:14.576Z,100234.44
2022-11-19T14:59:48.437Z,100233.44
2022-11-19T15:02:45.679Z,100216.22
2022-11-19T15:05:23.613Z,100238.75
2022-11-19T15:07:56.099Z,100212.56
2022-11-19T15:10:28.218Z,100213.44
2022-11-19T15:13:18.770Z,100231.13
2022-11-19T15:15:49.558Z,100230.16
2022-11-19T15:18:22.366Z,100195.13
2022-11-19T15:21:04.050Z,100190.91
2022-11-19T15:24:05.986Z,100221.06
2022-11-19T15:26:49.727Z,100194.75
2022-11-19T15:29:41.694Z,100213.13
2022-11-19T15:32:40.941Z,100185.25
2022-11-19T15:35:36.755Z,100203.03
2022-11-19T15:38:20.411Z,100193.44
2022-11-19T15:40:51.531Z,100210.31
2022-11-19T15:43:33.413Z,100179.50
2022-11-19T15:46:10.111Z,100208.34
2022-11-19T15:49:23.887Z,100229.88
2022-11-19T15:52:14.594Z,100196.31
2022-11-19T15:54:44.976Z,100209.31
2022-11-19T15:57:21.352Z,100212.13
2022-11-19T16:00:01.363Z,100207.66
2022-11-19T16:02:42.547Z,100206.44
2022-11-19T16:05:26.160Z,100205.34
2022-11-19T16:07:53.637Z,100207.13
2022-11-19T16:10:33.578Z,100209.13
2022-11-19T16:13:37.309Z,100175.50
2022-11-19T16:16:23.009Z,100175.47
2022-11-19T16:18:51.931Z,100204.19
2022-11-19T16:21:24.300Z,100205.03
2022-11-19T16:24:10.202Z,100204.25
2022-11-19T16:26:41.766Z,100192.41
2022-11-19T16:29:25.552Z,100111.66
2022-11-19T16:31:56.539Z,100172.31
2022-11-19T16:34:26.301Z,100150.78
2022-11-19T16:36:54.537Z,100191.66
2022-11-19T16:39:27.392Z,100172.63
2022-11-19T16:42:23.238Z,100175.03
2022-11-19T16:44:53.847Z,100173.16
2022-11-19T16:47:37.664Z,100116.69
2022-11-19T16:50:06.549Z,100158.53
2022-11-19T16:52:33.369Z,100158.34
2022-11-19T16:55:01.870Z,100153.09
2022-11-19T16:57:31.351Z,100128.97
2022-11-19T17:00:04.385Z,100155.63
2022-11-19T17:02:38.252Z,100155.38
2022-11-19T17:05:22.540Z,100155.44
2022-11-19T17:07:52.041Z,100137.06
2022-11-19T17:10:24.277Z,100150.22
2022-11-19T17:13:05.839Z,100157.19
2022-11-19T17:15:44.002Z,100151.06
2022-11-19T17:18:20.753Z,100129.94
2022-11-19T17:20:54.133Z,100135.47
2022-11-19T17:23:23.997Z,100149.75
2022-11-19T17:25:58.598Z,100158.53
2022-11-19T17:28:41.229Z,100152.31
2022-11-19T17:31:26.992Z,100137.72
2022-11-19T17:34:07.477Z,100130.19
2022-11-19T17:36:34.429Z,100109.63
2022-11-19T17:39:01.596Z,100132.53
2022-11-19T17:41:47.946Z,100123.06
2022-11-19T17:44:35.132Z,100124.91
2022-11-19T17:47:21.322Z,100130.13
2022-11-19T17:49:49.538Z,100137.91
2022-11-19T17:52:29.492Z,100128.53
2022-11-19T17:55:18.670Z,100129.25
2022-11-19T17:57:45.637Z,100079.16
2022-11-19T18:00:13.262Z,100132.91
2022-11-19T18:02:40.207Z,100114.88
2022-11-19T18:05:19.965Z,100123.53
2022-11-19T18:07:46.941Z,100081.19
2022-11-19T18:10:13.906Z,100116.31
2022-11-19T18:12:40.789Z,100097.81
2022-11-19T18:15:08.043Z,100121.00
2022-11-19T18:17:34.941Z,100114.59
2022-11-19T18:20:01.974Z,100116.50
2022-11-19T18:22:30.833Z,100108.44
2022-11-19T18:24:59.445Z,100116.69
2022-11-19T18:27:26.375Z,100110.03
2022-11-19T18:29:53.405Z,100083.25
2022-11-19T18:32:20.342Z,100107.72
2022-11-19T18:34:47.285Z,100092.28
2022-11-19T18:37:14.422Z,100092.81
2022-11-19T18:39:42.621Z,100115.88
2022-11-19T18:42:12.949Z,100108.66
2022-11-19T18:44:41.883Z,100061.38
2022-11-19T18:47:11.283Z,100086.81
2022-11-19T18:49:38.935Z,100056.81
2022-11-19T18:52:12.634Z,100090.19
2022-11-19T18:54:39.630Z,100060.59
2022-11-19T18:57:06.609Z,100033.03
2022-11-19T18:59:34.987Z,100069.03
2022-11-19T19:02:02.176Z,100079.25
2022-11-19T19:04:29.251Z,100088.00
2022-11-19T19:06:56.319Z,99988.00
2022-11-19T19:09:23.360Z,100086.41
2022-11-19T19:12:13.581Z,100071.88
2022-11-19T19:14:42.278Z,100090.06
2022-11-19T19:17:09.738Z,100082.41
2022-11-19T19:19:38.173Z,100084.19
2022-11-19T19:22:05.149Z,100051.34
2022-11-19T19:24:33.293Z,100084.84
2022-11-19T19:27:01.410Z,100080.53
2022-11-19T19:29:28.741Z,100078.22
2022-11-19T19:31:55.679Z,100024.75
2022-11-19T19:34:22.550Z,100061.22
2022-11-19T19:36:53.246Z,100071.13
2022-11-19T19:39:21.515Z,100069.19
2022-11-19T19:41:49.465Z,100066.34
2022-11-19T19:44:16.564Z,100067.41
2022-11-19T19:46:43.475Z,100071.22
2022-11-19T19:49:10.368Z,100058.72
2022-11-19T19:51:37.356Z,100043.16
2022-11-19T19:54:04.355Z,100047.59
2022-11-19T19:56:32.896Z,100044.34
2022-11-19T19:59:00.701Z,100071.13
2022-11-19T20:01:30.053Z,100057.72
2022-11-19T20:04:05.342Z,100048.53
2022-11-19T20:06:35.452Z,100057.44
2022-11-19T20:09:08.242Z,100055.00
2022-11-19T20:11:37.103Z,100055.09
2022-11-19T20:14:04.635Z,100024.97
2022-11-19T20:16:32.950Z,100049.75
2022-11-19T20:19:02.230Z,100053.78
2022-11-19T20:21:33.821Z,100059.50
2022-11-19T20:24:02.491Z,100041.34
2022-11-19T20:26:32.169Z,100031.97
2022-11-19T20:29:01.647Z,100024.09
2022-11-19T20:31:30.070Z,100031.47
2022-11-19T20:34:02.707Z,100055.91
2022-11-19T20:36:33.776Z,100031.06
2022-11-19T20:39:00.971Z,100047.53
2022-11-19T20:41:47.316Z,100046.84
2022-11-19T20:44:22.399Z,100059.13
2022-11-19T20:47:00.930Z,100060.94
2022-11-19T20:49:40.667Z,100066.25
2022-11-19T20:52:08.077Z,100059.50
2022-11-19T20:54:35.274Z,100060.00
2022-11-19T20:57:02.646Z,100064.63
2022-11-19T20:59:29.607Z,100062.44
2022-11-19T21:01:57.405Z,100090.66
2022-11-19T21:04:26.073Z,100061.25
2022-11-19T21:06:55.995Z,100061.81
2022-11-19T21:09:23.431Z,100061.81
2022-11-19T21:11:50.667Z,100057.44
2022-11-19T21:14:17.626Z,100071.44
2022-11-19T21:16:44.603Z,100077.09
2022-11-19T21:19:12.313Z,100079.38
2022-11-19T21:21:39.276Z,100068.91
2022-11-19T21:24:06.749Z,100095.91
2022-11-19T21:26:33.860Z,100079.88
2022-11-19T21:29:00.792Z,100081.63
2022-11-19T21:31:44.445Z,100091.63
2022-11-19T21:34:14.103Z,100092.41
2022-11-19T21:36:43.008Z,100055.25
2022-11-19T21:39:10.841Z,100087.91
2022-11-19T21:41:38.298Z,100094.28
2022-11-19T21:44:05.999Z,100073.66
2022-11-19T21:46:33.598Z,100038.41
2022-11-19T21:49:01.502Z,100095.88
2022-11-19T21:51:28.610Z,100097.41
2022-11-19T21:53:58.869Z,100095.66
2022-11-19T21:56:27.279Z,100082.75
2022-11-19T21:58:54.259Z,100087.28
2022-11-19T22:01:21.243Z,100087.13
2022-11-19T22:03:48.197Z,100085.03
2022-11-19T22:06:15.160Z,100091.16
2022-11-19T22:08:42.544Z,100071.94
2022-11-19T22:11:29.236Z,100092.44
2022-11-19T22:14:04.261Z,100086.56
2022-11-19T22:16:33.284Z,100077.91
2022-11-19T22:19:00.510Z,100045.06
2022-11-19T22:21:29.296Z,100089.56
2022-11-19T22:23:56.629Z,100083.41
2022-11-19T22:26:23.840Z,100070.81
2022-11-19T22:28:50.733Z,100090.72
2022-11-19T22:31:17.753Z,100091.72
2022-11-19T22:33:44.725Z,100087.50
2022-11-19T22:36:11.803Z,100069.63
2022-11-19T22:38:39.336Z,100091.94
2022-11-19T22:41:12.451Z,100063.91
2022-11-19T22:43:40.638Z,100056.06
2022-11-19T22:46:09.365Z,100085.88
2022-11-19T22:48:37.379Z,100074.91
2022-11-19T22:51:09.702Z,100077.88
2022-11-19T22:53:37.098Z,100078.19
2022-11-19T22:56:06.192Z,100078.88
2022-11-19T22:58:34.023Z,99972.16
2022-11-19T23:01:01.019Z,100068.91
2022-11-19T23:03:28.379Z,100070.88
2022-11-19T23:05:56.139Z,100084.88
2022-11-19T23:08:23.248Z,100080.97
2022-11-19T23:10:57.527Z,100085.97
2022-11-19T23:13:33.269Z,100079.31
2022-11-19T23:16:16.988Z,100055.00
2022-11-19T23:18:51.249Z,100039.88
2022-11-19T23:21:25.495Z,100078.13
2022-11-19T23:23:53.130Z,100068.63
2022-11-19T23:26:22.765Z,100077.63
2022-11-19T23:28:50.381Z,100070.97
2022-11-19T23:31:31.465Z,100086.88
2022-11-19T23:33:59.614Z,100088.94
2022-11-19T23:36:32.076Z,100070.28
2022-11-19T23:38:59.995Z,100089.31
2022-11-19T23:41:27.913Z,100092.44
2022-11-19T23:43:55.674Z,100100.66
2022-11-19T23:46:31.033Z,100072.81
2022-11-19T23:48:59.400Z,100108.59
2022-11-19T23:51:29.141Z,100104.66
2022-11-19T23:53:56.783Z,100106.03
2022-11-19T23:56:25.408Z,100105.63
2022-11-19T23:58:53.081Z,100076.22
